Time;durP1;ratioP1;P1;durP2;ratioP2;P2;SDS_P1;SDS_P2;PMS_P1;PMS_P2;Temp;Humidity;BMP_temperature;BMP_pressure;BME280_temperature;BME280_humidity;BME280_pressure;Samples;Min_cycle;Max_cycle;Signal;HPM_P1;HPM_P2
2021/07/20 00:00:22;;;;;;;13.90;7.88;;;;;;;15.38;100.00;95946.81;1022213;28;20553;-70
2021/07/20 00:00:52;;;;;;;15.55;7.43;;;;;;;15.36;100.00;95939.19;1026427;28;20046;-70
2021/07/20 00:01:23;;;;;;;12.13;7.32;;;;;;;15.36;100.00;95946.31;1024796;28;20424;-70
2021/07/20 00:01:53;;;;;;;11.88;7.68;;;;;;;15.35;100.00;95945.53;1026059;28;20047;-69
2021/07/20 00:02:32;;;;;;;12.10;7.68;;;;;;;15.38;100.00;95941.53;1034611;28;20030;-69
2021/07/20 00:03:09;;;;;;;10.07;7.50;;;;;;;15.28;100.00;95943.25;1034521;28;20559;-69
2021/07/20 00:03:41;;;;;;;11.32;7.28;;;;;;;15.25;100.00;95937.75;1028608;28;20427;-69
2021/07/20 00:04:11;;;;;;;12.27;8.15;;;;;;;15.26;100.00;95940.13;1030560;28;20022;-69
2021/07/20 00:04:44;;;;;;;12.43;7.78;;;;;;;15.27;100.00;95944.31;1022276;28;20161;-69
2021/07/20 00:05:20;;;;;;;11.25;8.02;;;;;;;15.28;100.00;95943.25;1021072;29;20042;-70
2021/07/20 00:05:51;;;;;;;16.27;8.43;;;;;;;15.28;100.00;95930.03;1015728;29;20760;-70
2021/07/20 00:06:21;;;;;;;18.88;7.57;;;;;;;15.28;100.00;95934.53;1021026;28;20028;-70
2021/07/20 00:06:52;;;;;;;13.48;7.95;;;;;;;15.23;100.00;95934.63;1021717;29;20031;-70
2021/07/20 00:07:22;;;;;;;13.95;8.05;;;;;;;15.22;100.00;95933.81;1022725;28;20034;-70
2021/07/20 00:07:57;;;;;;;13.75;7.50;;;;;;;15.12;100.00;95923.38;1026618;28;20504;-70
2021/07/20 00:08:27;;;;;;;11.40;7.07;;;;;;;15.13;100.00;95935.56;1019292;29;20107;-72
2021/07/20 00:08:58;;;;;;;16.20;7.97;;;;;;;15.09;100.00;95940.63;1022062;29;20383;-69
2021/07/20 00:09:28;;;;;;;12.43;7.68;;;;;;;15.06;100.00;95933.25;1023190;28;20066;-71
2021/07/20 00:09:59;;;;;;;11.07;7.38;;;;;;;15.06;100.00;95937.78;1026935;28;20034;-69
2021/07/20 00:10:37;;;;;;;15.02;8.50;;;;;;;15.07;100.00;95937.47;1030180;28;20070;-70
2021/07/20 00:11:07;;;;;;;12.57;7.30;;;;;;;15.06;100.00;95941.19;1029993;28;20038;-71
2021/07/20 00:11:38;;;;;;;13.27;7.60;;;;;;;15.07;100.00;95939.34;1026443;28;20050;-70
2021/07/20 00:12:09;;;;;;;11.82;7.85;;;;;;;15.02;100.00;95936.75;1026708;28;20027;-71
2021/07/20 00:12:39;;;;;;;13.63;7.60;;;;;;;14.97;100.00;95926.25;1022656;29;20031;-69
2021/07/20 00:13:10;;;;;;;12.55;7.47;;;;;;;14.98;100.00;95927.81;1022223;29;20023;-69
2021/07/20 00:13:40;;;;;;;12.35;6.95;;;;;;;14.98;100.00;95947.09;1018381;29;20669;-69
2021/07/20 00:14:10;;;;;;;11.52;7.55;;;;;;;14.99;100.00;95942.59;1023424;28;20080;-69
2021/07/20 00:14:41;;;;;;;12.27;7.05;;;;;;;14.97;100.00;95936.84;1018735;29;20450;-70
2021/07/20 00:15:12;;;;;;;13.75;8.07;;;;;;;14.94;100.00;95927.59;1018406;29;20035;-69
2021/07/20 00:15:42;;;;;;;14.25;8.52;;;;;;;14.97;100.00;95939.47;1025509;28;20057;-69
2021/07/20 00:16:14;;;;;;;18.00;8.05;;;;;;;14.90;100.00;95931.91;1030785;28;20563;-70
2021/07/20 00:16:44;;;;;;;15.70;7.65;;;;;;;14.92;100.00;95931.59;1030486;28;20116;-71
2021/07/20 00:17:15;;;;;;;13.13;8.23;;;;;;;14.93;100.00;95938.47;1022267;29;20113;-69
2021/07/20 00:17:45;;;;;;;14.20;7.90;;;;;;;14.90;100.00;95936.41;1018558;29;20607;-70
2021/07/20 00:18:17;;;;;;;12.82;8.40;;;;;;;14.90;100.00;95931.13;1014785;29;20098;-69
2021/07/20 00:18:47;;;;;;;16.30;7.75;;;;;;;14.88;100.00;95928.75;1018738;29;20509;-69
2021/07/20 00:19:17;;;;;;;12.15;8.18;;;;;;;14.89;100.00;95926.88;1024955;28;20035;-69
2021/07/20 00:19:49;;;;;;;17.52;8.68;;;;;;;14.87;100.00;95926.41;1030821;28;20640;-70
2021/07/20 00:20:21;;;;;;;13.80;7.93;;;;;;;14.85;100.00;95929.31;1034751;28;20025;-70
2021/07/20 00:20:52;;;;;;;12.43;7.97;;;;;;;14.83;100.00;95919.03;1024061;28;20046;-69
2021/07/20 00:21:22;;;;;;;11.45;7.85;;;;;;;14.80;100.00;95924.88;1016353;29;20032;-70
2021/07/20 00:21:53;;;;;;;13.25;7.90;;;;;;;14.74;100.00;95920.75;1014421;29;20028;-68
2021/07/20 00:22:23;;;;;;;12.77;8.23;;;;;;;14.77;100.00;95919.41;1020511;28;20035;-71
2021/07/20 00:22:54;;;;;;;11.38;7.55;;;;;;;14.71;100.00;95916.03;1030663;28;20018;-70
2021/07/20 00:23:24;;;;;;;11.63;7.90;;;;;;;14.78;100.00;95929.66;1026402;28;20023;-70
2021/07/20 00:23:57;;;;;;;11.70;8.15;;;;;;;14.75;100.00;95924.94;1022427;29;20039;-67
2021/07/20 00:24:28;;;;;;;13.60;8.38;;;;;;;14.74;100.00;95930.53;1018375;29;20206;-70
2021/07/20 00:24:58;;;;;;;14.70;8.60;;;;;;;14.73;100.00;95926.31;1019502;28;20526;-68
2021/07/20 00:25:29;;;;;;;11.65;8.20;;;;;;;14.73;100.00;95927.09;1026735;28;20046;-69
2021/07/20 00:25:59;;;;;;;11.73;7.75;;;;;;;14.72;100.00;95930.81;1026286;28;20070;-69
2021/07/20 00:26:30;;;;;;;16.85;7.97;;;;;;;14.70;100.00;95929.53;1026420;28;20049;-69
2021/07/20 00:27:00;;;;;;;13.32;8.43;;;;;;;14.67;100.00;95927.44;1030695;28;20030;-70
2021/07/20 00:27:31;;;;;;;14.15;8.68;;;;;;;14.66;100.00;95926.66;1029925;28;20031;-71
2021/07/20 00:28:01;;;;;;;12.77;8.45;;;;;;;14.64;100.00;95920.88;1026687;28;20031;-69
2021/07/20 00:28:32;;;;;;;13.38;8.65;;;;;;;14.56;100.00;95910.94;1030602;28;20037;-70
2021/07/20 00:29:02;;;;;;;13.02;8.35;;;;;;;14.61;100.00;95913.50;1026468;28;20050;-70
2021/07/20 00:29:33;;;;;;;16.25;8.90;;;;;;;14.63;100.00;95931.72;1026120;28;20035;-70
2021/07/20 00:30:04;;;;;;;12.35;8.40;;;;;;;14.56;100.00;95921.50;1026623;28;20026;-71
2021/07/20 00:30:34;;;;;;;16.40;9.15;;;;;;;14.58;100.00;95925.41;1022792;28;20041;-69
2021/07/20 00:31:05;;;;;;;12.77;8.30;;;;;;;14.56;100.00;95926.78;1030369;28;20526;-71
2021/07/20 00:31:38;;;;;;;14.25;8.63;;;;;;;14.55;100.00;95922.56;1029727;28;20030;-69
2021/07/20 00:32:08;;;;;;;16.70;8.75;;;;;;;14.53;100.00;95928.13;1030169;28;20428;-70
2021/07/20 00:32:39;;;;;;;14.95;8.68;;;;;;;14.52;100.00;95928.41;1034222;28;20026;-70
2021/07/20 00:33:10;;;;;;;14.45;8.38;;;;;;;14.53;100.00;95932.63;1034507;28;20030;-69
2021/07/20 00:33:40;;;;;;;13.60;9.10;;;;;;;14.50;100.00;95928.69;1030558;28;20034;-70
2021/07/20 00:34:11;;;;;;;12.93;8.50;;;;;;;14.48;100.00;95928.16;1026323;28;20429;-69
2021/07/20 00:34:41;;;;;;;16.23;9.05;;;;;;;14.49;100.00;95931.59;1026312;28;20037;-69
2021/07/20 00:35:12;;;;;;;16.15;9.25;;;;;;;14.42;100.00;95915.28;1022595;28;20054;-69
2021/07/20 00:35:45;;;;;;;13.60;9.38;;;;;;;14.20;100.00;95890.22;1022458;29;20093;-69
2021/07/20 00:36:16;;;;;;;16.75;8.75;;;;;;;14.44;100.00;95927.16;1014288;29;20024;-70
2021/07/20 00:36:49;;;;;;;15.35;9.32;;;;;;;14.44;100.00;95927.16;1014776;29;20276;-70
2021/07/20 00:37:19;;;;;;;11.88;8.68;;;;;;;14.43;100.00;95927.44;1016252;29;20118;-69
2021/07/20 00:37:49;;;;;;;15.82;9.07;;;;;;;14.42;100.00;95931.13;1022509;28;20287;-70
2021/07/20 00:38:20;;;;;;;14.57;9.00;;;;;;;14.41;100.00;95921.66;1030443;28;20081;-69
2021/07/20 00:38:50;;;;;;;12.95;8.85;;;;;;;14.37;100.00;95930.13;1030754;28;20034;-70
2021/07/20 00:39:21;;;;;;;15.25;8.82;;;;;;;14.39;100.00;95930.66;1025198;28;20054;-69
2021/07/20 00:39:54;;;;;;;15.32;8.73;;;;;;;14.41;100.00;95929.56;1021165;29;20789;-69
2021/07/20 00:40:27;;;;;;;12.35;8.45;;;;;;;14.39;100.00;95928.00;1023648;28;20039;-70
2021/07/20 00:40:58;;;;;;;17.13;9.00;;;;;;;14.37;100.00;95924.84;1023378;28;20505;-70
2021/07/20 00:41:28;;;;;;;14.75;9.35;;;;;;;14.36;100.00;95928.56;1026512;28;20159;-70
2021/07/20 00:41:59;;;;;;;14.38;8.15;;;;;;;14.36;100.00;95928.56;1030024;28;20469;-70
2021/07/20 00:42:29;;;;;;;12.68;8.40;;;;;;;14.35;100.00;95926.19;1030536;28;20560;-69
2021/07/20 00:43:00;;;;;;;14.35;9.13;;;;;;;14.34;100.00;95928.06;1030868;28;20034;-69
2021/07/20 00:43:34;;;;;;;13.18;8.55;;;;;;;14.33;100.00;95926.50;1030597;28;20408;-70
2021/07/20 00:44:04;;;;;;;15.98;9.35;;;;;;;14.33;100.00;95926.50;1026699;28;20035;-70
2021/07/20 00:44:35;;;;;;;16.75;8.50;;;;;;;14.33;100.00;95923.84;1025580;28;20058;-70
2021/07/20 00:45:06;;;;;;;18.33;9.43;;;;;;;14.32;100.00;95927.56;1022825;29;20027;-69
2021/07/20 00:45:37;;;;;;;15.93;8.43;;;;;;;14.32;100.00;95921.50;1022948;28;20652;-70
2021/07/20 00:46:07;;;;;;;12.60;8.05;;;;;;;14.32;100.00;95926.78;1022445;28;20115;-69
2021/07/20 00:46:38;;;;;;;15.10;9.40;;;;;;;14.33;100.00;95929.13;1026756;28;20507;-69
2021/07/20 00:47:08;;;;;;;15.25;9.13;;;;;;;14.32;100.00;95919.66;1030640;28;20037;-71
2021/07/20 00:47:39;;;;;;;15.23;9.40;;;;;;;14.33;100.00;95934.41;1026694;28;20079;-69
2021/07/20 00:48:09;;;;;;;13.75;8.70;;;;;;;14.27;100.00;95919.69;1022409;28;20031;-70
2021/07/20 00:48:39;;;;;;;17.80;9.27;;;;;;;14.35;100.00;95929.66;1018595;29;20047;-69
2021/07/20 00:49:10;;;;;;;17.13;8.82;;;;;;;14.34;100.00;95930.69;1018726;29;20028;-69
2021/07/20 00:49:40;;;;;;;13.10;8.30;;;;;;;14.36;100.00;95931.22;1022308;28;20043;-69
2021/07/20 00:50:12;;;;;;;15.27;9.38;;;;;;;14.32;100.00;95927.56;1022392;28;20035;-69
2021/07/20 00:50:44;;;;;;;15.93;9.00;;;;;;;14.35;100.00;95927.00;1018725;29;20032;-69
2021/07/20 00:51:14;;;;;;;14.27;9.40;;;;;;;14.38;100.00;95923.81;1022065;28;20070;-71
2021/07/20 00:51:44;;;;;;;14.95;8.43;;;;;;;14.41;100.00;95929.56;1018419;29;20283;-70
2021/07/20 00:52:15;;;;;;;13.60;8.68;;;;;;;14.44;100.00;95929.00;1022780;28;20031;-70
2021/07/20 00:52:45;;;;;;;12.73;9.00;;;;;;;14.47;100.00;95929.22;1026553;28;20083;-69
2021/07/20 00:53:16;;;;;;;12.98;8.95;;;;;;;14.48;100.00;95924.72;1022253;28;20035;-69
2021/07/20 00:53:48;;;;;;;14.45;8.45;;;;;;;14.46;100.00;95921.59;1026797;28;20508;-70
2021/07/20 00:54:18;;;;;;;15.18;8.80;;;;;;;14.51;100.00;95930.25;1022706;29;20496;-69
2021/07/20 00:54:49;;;;;;;14.00;8.68;;;;;;;14.54;100.00;95928.91;1025128;28;20031;-67
2021/07/20 00:55:19;;;;;;;15.98;9.25;;;;;;;14.49;100.00;95921.03;1022619;29;20524;-69
2021/07/20 00:55:50;;;;;;;14.25;8.57;;;;;;;14.50;100.00;95922.59;1015361;29;20557;-71
2021/07/20 00:56:20;;;;;;;15.68;8.77;;;;;;;14.57;100.00;95928.34;1016150;29;20080;-70
2021/07/20 00:56:53;;;;;;;15.57;9.63;;;;;;;14.53;100.00;95916.78;1017355;29;20055;-70
2021/07/20 00:57:23;;;;;;;16.45;8.30;;;;;;;14.58;100.00;95924.63;1018728;29;20413;-70
2021/07/20 00:57:54;;;;;;;14.82;8.85;;;;;;;14.58;100.00;95920.13;1014721;29;20020;-70
2021/07/20 00:58:24;;;;;;;13.98;9.27;;;;;;;14.60;100.00;95927.78;1014862;29;20039;-70
2021/07/20 00:58:55;;;;;;;16.45;9.15;;;;;;;14.56;100.00;95918.88;1022580;28;20027;-69
2021/07/20 00:59:25;;;;;;;15.63;8.70;;;;;;;14.55;100.00;95925.19;1022883;28;20106;-69
2021/07/20 00:59:56;;;;;;;13.02;8.70;;;;;;;14.56;100.00;95924.94;1018326;29;20096;-70
2021/07/20 01:00:26;;;;;;;13.00;9.10;;;;;;;14.58;100.00;95919.34;1022740;29;20031;-70
2021/07/20 01:00:57;;;;;;;13.73;9.30;;;;;;;14.56;100.00;95916.22;1025741;28;20085;-71
2021/07/20 01:01:27;;;;;;;14.32;8.90;;;;;;;14.58;100.00;95917.50;1026153;28;20034;-69
2021/07/20 01:01:57;;;;;;;15.55;7.97;;;;;;;14.60;100.00;95918.00;1028191;28;20053;-69
2021/07/20 01:02:28;;;;;;;15.68;8.93;;;;;;;14.61;100.00;95918.78;1030724;28;20493;-71
2021/07/20 01:02:58;;;;;;;17.02;9.50;;;;;;;14.62;100.00;95925.66;1026500;28;20388;-70
2021/07/20 01:03:33;;;;;;;16.60;9.00;;;;;;;14.61;100.00;95919.56;1022341;29;20023;-70
2021/07/20 01:04:03;;;;;;;15.68;9.15;;;;;;;14.61;100.00;95918.78;1022827;29;20027;-70
2021/07/20 01:04:34;;;;;;;13.90;8.15;;;;;;;14.59;100.00;95919.09;1023327;28;20023;-70
2021/07/20 01:05:09;;;;;;;16.83;8.35;;;;;;;14.58;100.00;95914.84;1027281;28;20485;-70
2021/07/20 01:05:40;;;;;;;14.57;8.65;;;;;;;14.56;100.00;95913.59;1026526;28;20034;-70
2021/07/20 01:06:10;;;;;;;16.45;8.82;;;;;;;14.57;100.00;95913.28;1026686;28;20046;-69
2021/07/20 01:06:40;;;;;;;15.02;9.18;;;;;;;14.59;100.00;95910.38;1022492;29;20023;-70
2021/07/20 01:07:11;;;;;;;12.80;8.60;;;;;;;14.57;100.00;95910.66;1018268;29;20032;-71
2021/07/20 01:07:42;;;;;;;15.70;9.18;;;;;;;14.51;100.00;95901.22;1022654;29;20055;-70
2021/07/20 01:08:12;;;;;;;14.48;8.57;;;;;;;14.59;100.00;95916.44;1026589;28;20033;-70
2021/07/20 01:08:43;;;;;;;15.95;9.38;;;;;;;14.55;100.00;95915.44;1020970;29;20042;-69
2021/07/20 01:09:13;;;;;;;14.82;9.50;;;;;;;14.53;100.00;95911.50;1022458;29;20020;-70
2021/07/20 01:09:45;;;;;;;14.98;8.70;;;;;;;14.54;100.00;95919.13;1022651;29;20035;-71
2021/07/20 01:10:16;;;;;;;15.45;9.13;;;;;;;14.49;100.00;95915.75;1022325;28;20019;-69
2021/07/20 01:10:46;;;;;;;13.23;8.63;;;;;;;14.51;100.00;95918.91;1014856;29;20032;-69
2021/07/20 01:11:17;;;;;;;13.80;9.05;;;;;;;14.50;100.00;95906.75;1014451;29;20593;-70
2021/07/20 01:11:47;;;;;;;18.98;9.57;;;;;;;14.52;100.00;95910.72;1013785;29;20077;-70
2021/07/20 01:12:19;;;;;;;12.45;8.95;;;;;;;14.62;100.00;95915.09;1020182;28;20023;-70
2021/07/20 01:12:55;;;;;;;15.80;9.40;;;;;;;14.64;100.00;95918.22;1028268;28;20037;-70
2021/07/20 01:13:25;;;;;;;12.55;9.18;;;;;;;14.64;100.00;95923.50;1026230;28;20806;-69
2021/07/20 01:13:56;;;;;;;12.82;8.68;;;;;;;14.66;100.00;95928.53;1023390;28;20023;-70
2021/07/20 01:14:27;;;;;;;16.52;8.27;;;;;;;14.67;100.00;95922.16;1022253;28;20024;-70
2021/07/20 01:14:57;;;;;;;12.35;8.60;;;;;;;14.70;100.00;95927.66;1022460;29;20084;-69
2021/07/20 01:15:27;;;;;;;19.08;9.15;;;;;;;14.64;100.00;95912.94;1027566;28;20837;-69
2021/07/20 01:15:58;;;;;;;16.08;9.35;;;;;;;14.72;100.00;95928.19;1020178;28;20083;-70
2021/07/20 01:16:30;;;;;;;16.67;8.75;;;;;;;14.70;100.00;95917.09;1018117;29;20027;-69
2021/07/20 01:17:00;;;;;;;17.02;9.57;;;;;;;14.75;100.00;95919.66;1018465;29;20039;-70
2021/07/20 01:17:31;;;;;;;11.73;8.73;;;;;;;14.78;100.00;95924.38;1023063;28;20027;-69
2021/07/20 01:18:01;;;;;;;12.60;8.32;;;;;;;14.82;100.00;95928.03;1028713;28;20030;-70
2021/07/20 01:18:32;;;;;;;13.73;9.00;;;;;;;14.83;100.00;95923.53;1018620;29;20115;-71
2021/07/20 01:19:04;;;;;;;15.07;8.48;;;;;;;14.90;100.00;95931.13;1010924;29;20125;-69
2021/07/20 01:19:34;;;;;;;12.05;8.80;;;;;;;14.93;100.00;95927.91;1015256;29;20189;-69
2021/07/20 01:20:07;;;;;;;17.52;8.70;;;;;;;14.90;100.00;95917.91;1014948;29;20152;-70
2021/07/20 01:20:37;;;;;;;14.60;9.10;;;;;;;14.89;100.00;95919.78;1013761;29;20051;-70
2021/07/20 01:21:09;;;;;;;14.45;9.07;;;;;;;14.87;100.00;95915.84;1022710;29;21025;-70
2021/07/20 01:21:40;;;;;;;12.27;8.60;;;;;;;14.97;100.00;95923.63;1016564;28;20134;-67
2021/07/20 01:22:10;;;;;;;14.40;8.55;;;;;;;15.03;100.00;95930.41;1012622;29;20025;-71
2021/07/20 01:22:44;;;;;;;12.55;9.02;;;;;;;15.02;100.00;95931.47;1018734;29;20035;-69
2021/07/20 01:23:21;;;;;;;16.30;9.02;;;;;;;15.02;100.00;95934.91;1018464;29;20031;-70
2021/07/20 01:23:52;;;;;;;18.73;9.60;;;;;;;15.05;100.00;95928.25;1018053;29;20032;-71
2021/07/20 01:24:23;;;;;;;14.52;8.82;;;;;;;15.04;100.00;95938.03;1016069;29;20035;-69
2021/07/20 01:24:53;;;;;;;14.18;9.32;;;;;;;15.06;100.00;95930.63;1020128;28;20106;-70
2021/07/20 01:25:24;;;;;;;14.38;9.13;;;;;;;15.02;100.00;95931.47;1022484;29;20046;-70
2021/07/20 01:25:54;;;;;;;13.50;8.95;;;;;;;15.07;100.00;95934.03;1021537;28;20027;-70
2021/07/20 01:26:25;;;;;;;17.40;9.88;;;;;;;15.08;100.00;95935.59;1026421;28;20082;-70
2021/07/20 01:26:55;;;;;;;16.80;8.90;;;;;;;15.12;100.00;95928.69;1030324;28;20109;-69
2021/07/20 01:27:26;;;;;;;19.67;9.43;;;;;;;15.04;100.00;95926.69;1030585;28;20038;-70
2021/07/20 01:27:58;;;;;;;14.52;8.95;;;;;;;15.07;100.00;95921.63;1026445;28;20027;-69
2021/07/20 01:28:29;;;;;;;13.32;8.20;;;;;;;15.04;100.00;95919.53;1018904;28;20030;-69
2021/07/20 01:28:59;;;;;;;14.75;8.98;;;;;;;15.06;100.00;95922.69;1019046;29;20484;-70
2021/07/20 01:29:30;;;;;;;13.13;8.25;;;;;;;14.98;100.00;95925.97;1022008;29;20038;-70
2021/07/20 01:30:00;;;;;;;16.38;9.23;;;;;;;14.91;100.00;95914.97;1022415;29;20039;-69
2021/07/20 01:30:31;;;;;;;15.10;9.73;;;;;;;14.95;100.00;95917.81;1014654;29;20024;-70
2021/07/20 01:31:04;;;;;;;14.98;8.75;;;;;;;14.92;100.00;95923.69;1022722;28;20034;-71
2021/07/20 01:31:37;;;;;;;14.30;8.35;;;;;;;14.84;100.00;95912.69;1025841;28;20014;-71
2021/07/20 01:32:07;;;;;;;14.98;9.02;;;;;;;14.86;100.00;95925.63;1022409;29;20033;-69
2021/07/20 01:32:38;;;;;;;16.20;8.88;;;;;;;14.88;100.00;95917.41;1023345;29;20440;-70
2021/07/20 01:33:08;;;;;;;15.95;9.27;;;;;;;14.79;100.00;95907.47;1018700;29;20035;-70
2021/07/20 01:33:42;;;;;;;16.33;9.18;;;;;;;14.85;100.00;95914.28;1019633;29;20055;-70
2021/07/20 01:34:13;;;;;;;16.88;9.50;;;;;;;14.81;100.00;95915.88;1019063;29;20542;-70
2021/07/20 01:34:43;;;;;;;14.95;8.88;;;;;;;14.84;100.00;95917.19;1018864;29;20027;-70
2021/07/20 01:35:14;;;;;;;15.80;9.57;;;;;;;14.82;100.00;95914.84;1015432;29;20032;-70
2021/07/20 01:35:46;;;;;;;15.15;9.95;;;;;;;14.76;100.00;95915.97;1019397;29;20153;-70
2021/07/20 01:36:17;;;;;;;13.95;8.98;;;;;;;14.69;100.00;95912.91;1019140;29;20134;-72
2021/07/20 01:36:47;;;;;;;15.25;8.77;;;;;;;14.60;100.00;95909.31;1019563;29;20095;-69
2021/07/20 01:37:18;;;;;;;17.48;9.70;;;;;;;14.57;100.00;95908.00;1023355;29;20027;-71
2021/07/20 01:37:49;;;;;;;15.02;8.82;;;;;;;14.60;100.00;95911.94;1019246;29;20063;-70
2021/07/20 01:38:19;;;;;;;16.80;9.50;;;;;;;14.56;100.00;95917.00;1017985;29;20078;-69
2021/07/20 01:38:50;;;;;;;14.75;9.30;;;;;;;14.45;100.00;95910.22;1019357;29;20038;-71
2021/07/20 01:39:20;;;;;;;19.55;10.02;;;;;;;14.45;100.00;95915.50;1027349;28;20515;-70
2021/07/20 01:39:52;;;;;;;15.07;9.50;;;;;;;14.37;100.00;95919.56;1023054;29;20027;-69
2021/07/20 01:40:22;;;;;;;17.83;9.38;;;;;;;14.35;100.00;95915.63;1019254;29;20031;-71
2021/07/20 01:40:55;;;;;;;13.77;8.98;;;;;;;14.29;100.00;95917.56;1019245;29;20502;-72
2021/07/20 01:41:25;;;;;;;15.75;8.95;;;;;;;14.31;100.00;95920.69;1014620;29;20047;-69
2021/07/20 01:41:56;;;;;;;18.73;9.82;;;;;;;14.27;100.00;95919.69;1010914;29;20031;-69
2021/07/20 01:42:26;;;;;;;16.63;9.63;;;;;;;14.25;100.00;95916.56;1015729;29;20028;-70
2021/07/20 01:42:56;;;;;;;14.65;9.38;;;;;;;14.24;100.00;95925.53;1017717;29;20100;-71
2021/07/20 01:43:27;;;;;;;17.30;9.82;;;;;;;14.21;100.00;95925.31;1022331;28;20042;-69
2021/07/20 01:44:02;;;;;;;16.25;9.60;;;;;;;14.20;100.00;95929.03;1019219;29;20042;-70
2021/07/20 01:44:32;;;;;;;16.67;9.10;;;;;;;14.19;100.00;95915.03;1022403;29;20026;-71
2021/07/20 01:45:03;;;;;;;14.80;9.38;;;;;;;14.19;100.00;95933.50;1019758;29;20107;-70
2021/07/20 01:45:34;;;;;;;14.55;9.43;;;;;;;14.17;100.00;95927.72;1008830;29;20593;-68
2021/07/20 01:46:05;;;;;;;18.70;10.27;;;;;;;14.15;100.00;95919.28;1022954;29;20026;-70
2021/07/20 01:46:37;;;;;;;14.82;9.63;;;;;;;14.25;100.00;95932.41;1023370;28;20297;-70
2021/07/20 01:47:07;;;;;;;19.55;10.18;;;;;;;14.27;100.00;95932.09;1018988;29;20031;-70
2021/07/20 01:47:38;;;;;;;16.90;9.45;;;;;;;14.26;100.00;95933.97;1018748;29;20458;-70
2021/07/20 01:48:08;;;;;;;16.08;9.57;;;;;;;14.21;100.00;95923.44;1015043;29;20644;-71
2021/07/20 01:48:43;;;;;;;15.98;9.23;;;;;;;14.27;100.00;95940.81;1018624;29;20034;-69
2021/07/20 01:49:14;;;;;;;16.00;8.98;;;;;;;14.22;100.00;95921.59;1018962;29;20111;-69
2021/07/20 01:49:45;;;;;;;15.77;9.20;;;;;;;14.29;100.00;95932.63;1019811;29;20035;-70
2021/07/20 01:50:16;;;;;;;16.30;9.25;;;;;;;14.31;100.00;95936.53;1015248;29;21032;-69
2021/07/20 01:50:47;;;;;;;11.50;8.75;;;;;;;14.29;100.00;95928.13;1015822;29;20032;-70
2021/07/20 01:51:18;;;;;;;19.70;9.93;;;;;;;14.27;100.00;95930.25;1011318;29;20092;-70
2021/07/20 01:51:49;;;;;;;14.18;8.77;;;;;;;14.24;100.00;95930.03;1019252;29;20032;-71
2021/07/20 01:52:23;;;;;;;14.45;9.07;;;;;;;14.19;100.00;95933.50;1025527;28;20018;-70
2021/07/20 01:52:55;;;;;;;14.93;9.27;;;;;;;14.23;100.00;95929.25;1017960;29;20438;-70
2021/07/20 01:53:28;;;;;;;17.13;10.13;;;;;;;14.20;100.00;95937.72;1022722;28;20270;-69
2021/07/20 01:54:02;;;;;;;15.27;9.38;;;;;;;14.20;100.00;95924.53;1019057;29;20020;-69
2021/07/20 01:54:32;;;;;;;16.40;9.40;;;;;;;14.19;100.00;95932.72;1019012;29;20055;-70
2021/07/20 01:55:03;;;;;;;16.92;10.25;;;;;;;14.13;100.00;95924.06;1019010;29;20040;-70
2021/07/20 01:55:34;;;;;;;14.93;9.45;;;;;;;14.22;100.00;95932.16;1019340;28;20035;-69
2021/07/20 01:56:05;;;;;;;16.38;9.35;;;;;;;14.18;100.00;95926.63;1019020;29;20039;-71
2021/07/20 01:56:36;;;;;;;14.02;9.02;;;;;;;14.20;100.00;95929.81;1015134;29;20031;-70
2021/07/20 01:57:06;;;;;;;17.40;9.77;;;;;;;14.10;100.00;95916.72;1010329;29;20040;-70
2021/07/20 01:57:37;;;;;;;14.25;9.38;;;;;;;14.18;100.00;95928.50;1011002;29;20065;-70
2021/07/20 01:58:07;;;;;;;12.13;9.23;;;;;;;14.15;100.00;95932.47;1019065;29;20020;-69
2021/07/20 01:58:42;;;;;;;14.73;8.63;;;;;;;14.10;100.00;95916.72;1020216;28;20042;-71
2021/07/20 01:59:12;;;;;;;14.32;9.30;;;;;;;14.16;100.00;95928.78;1018911;29;20050;-70
2021/07/20 01:59:43;;;;;;;15.55;9.07;;;;;;;14.11;100.00;95928.84;1019174;29;20665;-70
2021/07/20 02:00:16;;;;;;;15.05;9.15;;;;;;;14.11;100.00;95932.25;1015541;29;20095;-69
2021/07/20 02:00:49;;;;;;;17.33;9.68;;;;;;;14.08;100.00;95926.75;1022945;29;20035;-70
2021/07/20 02:01:30;;;;;;;19.60;10.43;;;;;;;14.08;100.00;95932.03;1026890;28;20019;-70
2021/07/20 02:02:15;;;;;;;;;;;;;;;14.04;100.00;95926.53;1019482;28;20027;-68
2021/07/20 02:02:58;;;;;;;17.65;8.73;;;;;;;13.95;100.00;95917.66;1018201;29;19945;-67
2021/07/20 02:04:19;;;;;;;13.77;9.15;;;;;;;13.93;100.00;95925.06;1026864;28;20250;-70
2021/07/20 02:08:29;;;;;;;16.17;9.02;;;;;;;13.75;100.00;95929.19;1026520;28;20321;-69
2021/07/20 02:09:00;;;;;;;15.82;9.73;;;;;;;13.68;100.00;95924.25;1026538;28;20310;-70
2021/07/20 02:09:30;;;;;;;19.42;10.75;;;;;;;13.72;100.00;95924.47;1019123;29;20263;-69
2021/07/20 02:10:01;;;;;;;14.90;9.45;;;;;;;13.72;100.00;95928.97;1014961;29;20280;-69
2021/07/20 02:10:34;;;;;;;16.42;10.52;;;;;;;13.73;100.00;95933.94;1022532;28;20019;-69
2021/07/20 02:11:12;;;;;;;16.17;10.40;;;;;;;13.73;100.00;95936.59;1019138;29;20513;-69
2021/07/20 02:11:42;;;;;;;16.95;9.48;;;;;;;13.72;100.00;95932.38;1012127;29;20261;-69
2021/07/20 02:12:15;;;;;;;19.15;10.82;;;;;;;13.72;100.00;95935.03;1018859;29;20807;-70
2021/07/20 02:12:46;;;;;;;18.60;10.18;;;;;;;13.72;100.00;95934.25;1022490;28;20023;-68
2021/07/20 02:13:17;;;;;;;14.00;9.00;;;;;;;13.68;100.00;95933.97;1023141;28;20275;-69
2021/07/20 02:13:52;;;;;;;16.02;10.93;;;;;;;13.71;100.00;95940.56;1023513;28;20019;-69
2021/07/20 02:14:27;;;;;;;14.95;10.35;;;;;;;13.63;100.00;95924.28;1031021;28;20766;-70
2021/07/20 02:15:00;;;;;;;16.20;10.02;;;;;;;13.70;100.00;95942.41;1026821;28;20274;-70
2021/07/20 02:15:31;;;;;;;17.73;10.13;;;;;;;13.69;100.00;95938.22;1018448;29;20686;-68
2021/07/20 02:16:01;;;;;;;13.73;9.50;;;;;;;13.67;100.00;95942.97;1014963;29;20260;-69
2021/07/20 02:16:33;;;;;;;14.98;9.35;;;;;;;13.60;100.00;95921.41;1013179;29;20020;-70
2021/07/20 02:17:04;;;;;;;16.83;9.52;;;;;;;13.62;100.00;95929.84;1015193;29;20071;-70
2021/07/20 02:17:36;;;;;;;16.25;10.07;;;;;;;13.61;100.00;95934.28;1022566;28;20285;-69
2021/07/20 02:18:07;;;;;;;15.93;10.10;;;;;;;13.60;100.00;95938.00;1018793;29;20829;-69
2021/07/20 02:18:37;;;;;;;13.43;9.30;;;;;;;13.58;100.00;95936.69;1019021;29;20282;-70
2021/07/20 02:19:10;;;;;;;17.05;9.82;;;;;;;13.58;100.00;95934.06;1024460;28;20403;-69
2021/07/20 02:19:53;;;;;;;17.45;10.30;;;;;;;13.57;100.00;95937.78;1025310;28;20447;-69
2021/07/20 02:20:24;;;;;;;18.00;9.85;;;;;;;13.48;100.00;95927.06;1026827;28;20315;-70
2021/07/20 02:20:56;;;;;;;15.35;10.00;;;;;;;13.53;100.00;95942.03;1022940;29;20271;-69
2021/07/20 02:21:26;;;;;;;20.33;10.48;;;;;;;13.50;100.00;95934.66;1018433;29;20278;-71
2021/07/20 02:21:57;;;;;;;17.77;10.63;;;;;;;13.50;100.00;95945.22;1018109;29;20282;-68
2021/07/20 02:22:28;;;;;;;20.20;10.68;;;;;;;13.50;100.00;95942.56;1022765;29;20117;-69
2021/07/20 02:22:58;;;;;;;16.65;10.85;;;;;;;13.42;100.00;95931.56;1018899;29;20330;-70
2021/07/20 02:23:31;;;;;;;20.02;11.25;;;;;;;13.49;100.00;95944.44;1014505;29;20016;-69
2021/07/20 02:24:04;;;;;;;17.25;10.27;;;;;;;13.43;100.00;95937.63;1015083;29;20024;-70
2021/07/20 02:24:35;;;;;;;17.35;10.30;;;;;;;13.44;100.00;95945.25;1018948;29;20306;-69
2021/07/20 02:25:06;;;;;;;18.65;9.70;;;;;;;13.42;100.00;95944.75;1021752;28;20259;-69
2021/07/20 02:25:38;;;;;;;24.42;11.05;;;;;;;13.40;100.00;95944.22;1021212;29;20270;-69
2021/07/20 02:26:10;;;;;;;21.08;10.35;;;;;;;13.38;100.00;95942.91;1023605;28;20033;-71
2021/07/20 02:26:41;;;;;;;17.35;10.52;;;;;;;13.35;100.00;95946.91;1023893;28;20287;-69
2021/07/20 02:27:11;;;;;;;18.88;10.75;;;;;;;13.28;100.00;95935.09;1023362;28;20768;-70
2021/07/20 02:27:42;;;;;;;20.70;10.55;;;;;;;13.33;100.00;95949.03;1020141;29;20051;-70
2021/07/20 02:28:12;;;;;;;16.20;9.85;;;;;;;13.26;100.00;95940.66;1018426;29;20019;-69
2021/07/20 02:28:43;;;;;;;17.48;10.43;;;;;;;13.29;100.00;95947.22;1024730;28;20118;-70